Time;durP1;ratioP1;P1;durP2;ratioP2;P2;SDS_P1;SDS_P2;PMS_P1;PMS_P2;Temp;Humidity;BMP_temperature;BMP_pressure;BME280_temperature;BME280_humidity;BME280_pressure;Samples;Min_cycle;Max_cycle;Signal;HPM_P1;HPM_P2
2022/01/01 00:01:33;;;;;;;;;;;11.80;99.90;;;;;;5027189;28;19913;-69
2022/01/01 00:03:58;;;;;;;;;;;11.80;99.90;;;;;;5027649;28;19914;-71
2022/01/01 00:06:24;;;;;;;;;;;11.70;99.90;;;;;;5026871;28;20015;-72
2022/01/01 00:08:50;;;;;;;;;;;11.70;99.90;;;;;;5029764;28;19913;-70
2022/01/01 00:11:15;;;;;;;;;;;11.70;99.90;;;;;;5021481;28;19927;-71
2022/01/01 00:13:40;;;;;;;;;;;11.70;99.90;;;;;;5021657;28;20301;-73
2022/01/01 00:16:09;;;;;;;;;;;11.70;99.90;;;;;;5017587;28;20012;-71
2022/01/01 00:18:38;;;;;;;;;;;11.80;99.90;;;;;;5007588;28;19994;-71
2022/01/01 00:21:04;;;;;;;;;;;11.80;99.90;;;;;;5028087;28;19917;-70
2022/01/01 00:23:29;;;;;;;;;;;11.80;99.90;;;;;;5029093;28;19940;-72
2022/01/01 00:25:55;;;;;;;;;;;11.80;99.90;;;;;;5027213;28;19959;-71
2022/01/01 00:28:20;;;;;;;;;;;11.80;99.90;;;;;;5023332;28;19913;-69
2022/01/01 00:30:46;;;;;;;;;;;11.80;99.90;;;;;;5014318;28;20496;-70
2022/01/01 00:33:11;;;;;;;;;;;11.70;99.90;;;;;;5021670;28;19939;-70
2022/01/01 00:35:38;;;;;;;;;;;11.80;99.90;;;;;;5029117;28;19940;-70
2022/01/01 00:38:03;;;;;;;;;;;11.90;99.90;;;;;;5022276;28;19951;-72
2022/01/01 00:40:29;;;;;;;;;;;11.90;99.90;;;;;;5040391;28;19952;-73
2022/01/01 00:42:54;;;;;;;;;;;11.80;99.90;;;;;;5040867;28;19920;-70
2022/01/01 00:45:20;;;;;;;;;;;11.90;99.90;;;;;;5029439;28;19954;-71
2022/01/01 00:47:45;;;;;;;;;;;11.90;99.90;;;;;;5026840;28;19909;-70
2022/01/01 00:50:11;;;;;;;;;;;11.90;99.90;;;;;;5025532;28;19924;-71
2022/01/01 00:52:36;;;;;;;;;;;11.90;99.90;;;;;;5024917;28;20362;-73
2022/01/01 00:55:02;;;;;;;;;;;11.80;99.90;;;;;;5024709;28;19913;-69
2022/01/01 00:57:27;;;;;;;;;;;11.90;99.90;;;;;;5045996;28;19909;-70
2022/01/01 00:59:53;;;;;;;;;;;11.90;99.90;;;;;;5044717;28;20038;-70
2022/01/01 01:02:18;;;;;;;;;;;11.90;99.90;;;;;;5030497;28;20558;-72
2022/01/01 01:04:44;;;;;;;;;;;11.90;99.90;;;;;;5024974;28;19971;-72
2022/01/01 01:07:12;;;;;;;;;;;11.90;99.90;;;;;;5025402;28;19913;-72
2022/01/01 01:09:38;;;;;;;;;;;11.90;99.90;;;;;;5027688;28;19952;-71
2022/01/01 01:12:03;;;;;;;;;;;12.00;99.90;;;;;;5033686;28;19944;-70
2022/01/01 01:14:31;;;;;;;;;;;12.00;99.90;;;;;;5040662;28;20928;-70
2022/01/01 01:16:56;;;;;;;;;;;12.10;99.90;;;;;;5030568;28;19919;-73
2022/01/01 01:19:22;;;;;;;;;;;12.10;99.90;;;;;;5048586;28;20077;-71
2022/01/01 01:21:49;;;;;;;;;;;12.10;99.90;;;;;;5042955;28;19948;-71
2022/01/01 01:24:15;;;;;;;;;;;12.10;99.90;;;;;;5028817;28;19917;-70
2022/01/01 01:26:47;;;;;;;;;;;12.10;99.90;;;;;;5045088;28;19917;-72
2022/01/01 01:29:13;;;;;;;;;;;12.10;99.90;;;;;;5035121;28;19928;-70
2022/01/01 01:31:38;;;;;;;;;;;12.10;99.90;;;;;;5022014;28;20290;-71
2022/01/01 01:34:04;;;;;;;;;;;12.20;99.90;;;;;;5025371;28;19916;-72
2022/01/01 01:36:29;;;;;;;;;;;12.20;99.90;;;;;;5025566;28;19923;-70
2022/01/01 01:38:55;;;;;;;;;;;12.10;99.90;;;;;;5019584;28;19921;-72
2022/01/01 01:41:20;;;;;;;;;;;12.10;99.90;;;;;;5017833;28;19909;-71
2022/01/01 01:43:50;;;;;;;;;;;12.10;99.90;;;;;;5015376;28;20043;-69
2022/01/01 01:46:16;;;;;;;;;;;12.10;99.90;;;;;;5035121;28;19939;-72
2022/01/01 01:48:44;;;;;;;;;;;12.10;99.90;;;;;;5049643;28;19909;-71
2022/01/01 01:51:10;;;;;;;;;;;12.10;99.90;;;;;;5033008;28;20301;-69
2022/01/01 01:53:35;;;;;;;;;;;12.20;99.90;;;;;;5051564;28;19924;-74
2022/01/01 01:56:01;;;;;;;;;;;12.10;99.90;;;;;;5016353;28;20389;-70
2022/01/01 01:58:30;;;;;;;;;;;12.20;99.90;;;;;;5023320;28;20532;-72
2022/01/01 02:03:27;;;;;;;;;;;12.20;99.90;;;;;;5052057;28;19909;-70
2022/01/01 02:05:53;;;;;;;;;;;12.30;99.90;;;;;;5059587;28;19925;-70
2022/01/01 02:08:19;;;;;;;;;;;12.30;99.90;;;;;;5040817;28;19967;-70
2022/01/01 02:10:47;;;;;;;;;;;12.30;99.90;;;;;;5044226;28;19924;-69
2022/01/01 02:13:18;;;;;;;;;;;12.40;99.90;;;;;;5029580;28;20263;-70
2022/01/01 02:16:26;;;;;;;;;;;12.40;99.90;;;;;;5029262;28;19931;-69
2022/01/01 02:18:32;;;;;;;;;;;12.40;99.90;;;;;;5005795;28;19964;-72
2022/01/01 02:20:57;;;;;;;;;;;12.40;99.90;;;;;;5027507;28;19944;-70
2022/01/01 02:23:26;;;;;;;;;;;12.30;99.90;;;;;;5038758;28;19984;-70
2022/01/01 02:25:52;;;;;;;;;;;12.30;99.90;;;;;;5036593;28;20287;-70
2022/01/01 02:28:18;;;;;;;;;;;12.30;99.90;;;;;;5032992;28;19913;-69
2022/01/01 02:30:44;;;;;;;;;;;12.30;99.90;;;;;;5033554;28;19940;-73
2022/01/01 02:33:09;;;;;;;;;;;12.40;99.90;;;;;;5033351;28;19924;-70
2022/01/01 02:35:35;;;;;;;;;;;12.40;99.90;;;;;;5028286;28;19917;-70
2022/01/01 02:38:00;;;;;;;;;;;12.40;99.90;;;;;;5040682;28;20357;-73
2022/01/01 02:40:25;;;;;;;;;;;12.40;99.90;;;;;;5049909;28;19916;-70
2022/01/01 02:42:52;;;;;;;;;;;12.50;99.90;;;;;;5048767;28;19913;-70
2022/01/01 02:45:18;;;;;;;;;;;12.50;99.90;;;;;;5023190;28;19909;-71
2022/01/01 02:47:43;;;;;;;;;;;12.50;99.90;;;;;;5049577;28;19920;-72
2022/01/01 02:50:09;;;;;;;;;;;12.50;99.90;;;;;;5051259;28;19928;-71
2022/01/01 02:52:35;;;;;;;;;;;12.50;99.90;;;;;;5031991;28;19913;-68
2022/01/01 02:55:00;;;;;;;;;;;12.50;99.90;;;;;;5032905;28;19937;-69
2022/01/01 02:57:26;;;;;;;;;;;12.60;99.90;;;;;;5051469;28;19917;-70
2022/01/01 02:59:51;;;;;;;;;;;12.60;99.90;;;;;;5050115;28;19913;-69
2022/01/01 03:02:17;;;;;;;;;;;12.60;99.90;;;;;;5037930;28;20011;-72
2022/01/01 03:04:42;;;;;;;;;;;12.50;99.90;;;;;;5030185;28;20307;-71
2022/01/01 03:07:08;;;;;;;;;;;12.50;99.90;;;;;;5026991;28;19920;-71
2022/01/01 03:09:36;;;;;;;;;;;12.50;99.90;;;;;;5030204;28;19959;-70
2022/01/01 03:12:05;;;;;;;;;;;12.50;99.90;;;;;;5035131;28;19913;-70
2022/01/01 03:14:31;;;;;;;;;;;12.50;99.90;;;;;;5028259;28;19913;-70
2022/01/01 03:16:57;;;;;;;;;;;12.60;99.90;;;;;;5027812;28;20324;-71
2022/01/01 03:19:22;;;;;;;;;;;12.60;99.90;;;;;;5027017;28;19920;-71
2022/01/01 03:21:48;;;;;;;;;;;12.60;99.90;;;;;;5032869;28;20015;-71
2022/01/01 03:24:13;;;;;;;;;;;12.60;99.90;;;;;;5020721;28;19913;-70
2022/01/01 03:26:39;;;;;;;;;;;12.50;99.90;;;;;;5048811;28;19986;-70
2022/01/01 03:29:04;;;;;;;;;;;12.50;99.90;;;;;;5030004;28;19980;-71
2022/01/01 03:31:30;;;;;;;;;;;12.50;99.90;;;;;;5027641;28;20286;-71
2022/01/01 03:33:58;;;;;;;;;;;12.50;99.90;;;;;;5027499;28;19944;-70
2022/01/01 03:36:24;;;;;;;;;;;12.50;99.90;;;;;;5026048;28;19936;-70
2022/01/01 03:38:49;;;;;;;;;;;12.50;99.90;;;;;;5027504;28;19913;-70
2022/01/01 03:41:15;;;;;;;;;;;12.40;99.90;;;;;;5024989;28;19975;-70
2022/01/01 03:43:40;;;;;;;;;;;12.40;99.90;;;;;;5027184;28;20362;-69
2022/01/01 03:46:05;;;;;;;;;;;12.40;99.90;;;;;;5027449;28;19909;-67
2022/01/01 03:48:31;;;;;;;;;;;12.40;99.90;;;;;;5023009;28;19923;-71
2022/01/01 03:50:56;;;;;;;;;;;12.50;99.90;;;;;;5026663;28;19991;-70
2022/01/01 03:53:24;;;;;;;;;;;12.50;99.90;;;;;;5027278;28;19913;-72
2022/01/01 03:55:50;;;;;;;;;;;12.40;99.90;;;;;;5025432;28;19917;-71
2022/01/01 03:58:15;;;;;;;;;;;12.50;99.90;;;;;;5026440;28;19917;-69
2022/01/01 04:00:41;;;;;;;;;;;12.50;99.90;;;;;;5026509;28;19916;-70
2022/01/01 04:03:10;;;;;;;;;;;12.50;99.90;;;;;;5043832;28;19913;-71
2022/01/01 04:05:36;;;;;;;;;;;12.40;99.90;;;;;;5047085;28;19919;-69
2022/01/01 04:08:04;;;;;;;;;;;12.50;99.90;;;;;;5011854;28;19913;-71
2022/01/01 04:10:31;;;;;;;;;;;12.40;99.90;;;;;;5046179;28;19913;-70
2022/01/01 04:13:00;;;;;;;;;;;12.40;99.90;;;;;;5029923;28;19935;-71
2022/01/01 04:15:26;;;;;;;;;;;12.40;99.90;;;;;;5026151;28;19917;-69
2022/01/01 04:17:56;;;;;;;;;;;12.50;99.90;;;;;;5027422;28;19986;-70
2022/01/01 04:20:22;;;;;;;;;;;12.50;99.90;;;;;;5025972;28;19913;-70
2022/01/01 04:22:47;;;;;;;;;;;12.50;99.90;;;;;;5024958;28;20309;-70
2022/01/01 04:25:13;;;;;;;;;;;12.40;99.90;;;;;;5037880;28;19951;-70
2022/01/01 04:27:38;;;;;;;;;;;12.50;99.90;;;;;;5044944;28;19924;-70
2022/01/01 04:30:04;;;;;;;;;;;12.50;99.90;;;;;;5040572;28;19920;-71
2022/01/01 04:32:29;;;;;;;;;;;12.50;99.90;;;;;;5039537;28;20056;-69
2022/01/01 04:34:55;;;;;;;;;;;12.50;99.90;;;;;;5048320;28;19916;-70
2022/01/01 04:37:21;;;;;;;;;;;12.50;99.90;;;;;;5027878;28;19960;-69
2022/01/01 04:39:49;;;;;;;;;;;12.50;99.90;;;;;;5027253;28;20341;-72
2022/01/01 04:42:14;;;;;;;;;;;12.50;99.90;;;;;;5026252;28;19917;-71
2022/01/01 04:44:40;;;;;;;;;;;12.50;99.90;;;;;;5024238;28;20204;-71
2022/01/01 04:47:05;;;;;;;;;;;12.60;99.90;;;;;;5024945;28;19944;-72
2022/01/01 04:49:31;;;;;;;;;;;12.60;99.90;;;;;;5028523;28;20314;-71
2022/01/01 04:51:56;;;;;;;;;;;12.60;99.90;;;;;;5026843;28;19913;-70
2022/01/01 04:54:22;;;;;;;;;;;12.60;99.90;;;;;;5023680;28;19921;-69
2022/01/01 04:56:48;;;;;;;;;;;12.60;99.90;;;;;;5024583;28;19924;-70
2022/01/01 04:59:15;;;;;;;;;;;12.60;99.90;;;;;;5024085;28;20030;-70
2022/01/01 05:01:41;;;;;;;;;;;12.60;99.90;;;;;;5037254;28;19917;-70
2022/01/01 05:04:07;;;;;;;;;;;12.60;99.90;;;;;;5044037;28;19909;-70
2022/01/01 05:06:32;;;;;;;;;;;12.60;99.90;;;;;;5045399;28;20209;-69
2022/01/01 05:08:59;;;;;;;;;;;12.60;99.90;;;;;;5031529;28;19924;-70
2022/01/01 05:11:24;;;;;;;;;;;12.60;99.90;;;;;;5037940;28;19923;-69
2022/01/01 05:13:50;;;;;;;;;;;12.60;99.90;;;;;;5051876;28;19980;-70
2022/01/01 05:16:18;;;;;;;;;;;12.60;99.90;;;;;;5040574;28;19960;-70
2022/01/01 05:18:44;;;;;;;;;;;12.60;99.90;;;;;;5016512;28;20302;-70
2022/01/01 05:21:09;;;;;;;;;;;12.60;99.90;;;;;;5020411;28;20023;-70
2022/01/01 05:23:35;;;;;;;;;;;12.70;99.90;;;;;;5024606;28;19909;-69
2022/01/01 05:26:00;;;;;;;;;;;12.60;99.90;;;;;;5021520;28;19953;-71
2022/01/01 05:28:26;;;;;;;;;;;12.60;99.90;;;;;;5026010;28;19917;-71
2022/01/01 05:30:51;;;;;;;;;;;12.70;99.90;;;;;;5021496;28;19940;-68
2022/01/01 05:33:17;;;;;;;;;;;12.70;99.90;;;;;;5019031;28;20374;-69
2022/01/01 05:35:42;;;;;;;;;;;12.70;99.90;;;;;;5020222;28;19954;-69
2022/01/01 05:38:08;;;;;;;;;;;12.60;99.90;;;;;;5017941;28;19913;-69
2022/01/01 05:40:33;;;;;;;;;;;12.70;99.90;;;;;;5018528;28;19917;-69
2022/01/01 05:42:59;;;;;;;;;;;12.70;99.90;;;;;;5021356;28;19949;-68
2022/01/01 05:45:24;;;;;;;;;;;12.80;99.90;;;;;;5037489;28;20165;-68
2022/01/01 05:47:50;;;;;;;;;;;12.90;99.90;;;;;;5025988;28;19928;-71
2022/01/01 05:50:17;;;;;;;;;;;12.90;99.90;;;;;;5036624;28;19913;-70
2022/01/01 05:52:43;;;;;;;;;;;12.90;99.90;;;;;;5011676;28;19913;-71
2022/01/01 05:55:09;;;;;;;;;;;12.90;99.90;;;;;;5025570;28;19923;-71
2022/01/01 05:57:34;;;;;;;;;;;12.90;99.90;;;;;;5021823;28;19909;-69
2022/01/01 06:00:00;;;;;;;;;;;12.80;99.90;;;;;;5029381;28;19921;-70
2022/01/01 06:02:25;;;;;;;;;;;12.70;99.90;;;;;;5011709;28;19924;-71
2022/01/01 06:04:51;;;;;;;;;;;12.70;99.90;;;;;;5010998;28;19921;-71
2022/01/01 06:07:16;;;;;;;;;;;12.70;99.90;;;;;;5021245;28;19913;-69
2022/01/01 06:09:42;;;;;;;;;;;12.70;99.90;;;;;;5029675;28;20439;-71
2022/01/01 06:12:07;;;;;;;;;;;12.80;99.90;;;;;;5028457;28;19918;-69
2022/01/01 06:14:33;;;;;;;;;;;12.80;99.90;;;;;;5020859;28;20102;-69
2022/01/01 06:16:58;;;;;;;;;;;12.70;99.90;;;;;;5012544;28;19928;-71
2022/01/01 06:19:24;;;;;;;;;;;12.70;99.90;;;;;;5027881;28;19917;-69
2022/01/01 06:21:49;;;;;;;;;;;12.70;99.90;;;;;;5022345;28;20604;-69
2022/01/01 06:24:15;;;;;;;;;;;12.70;99.90;;;;;;5020563;28;19912;-69
2022/01/01 06:26:40;;;;;;;;;;;12.80;99.90;;;;;;5018989;28;20297;-69
2022/01/01 06:29:06;;;;;;;;;;;12.70;99.90;;;;;;5024397;28;19921;-72
2022/01/01 06:31:31;;;;;;;;;;;12.70;99.90;;;;;;5021140;28;19928;-73
2022/01/01 06:33:57;;;;;;;;;;;12.70;99.90;;;;;;5022324;28;19920;-70
2022/01/01 06:36:22;;;;;;;;;;;12.70;99.90;;;;;;5017149;28;19924;-69
2022/01/01 06:38:48;;;;;;;;;;;12.70;99.90;;;;;;5014993;28;20026;-69
2022/01/01 06:41:13;;;;;;;;;;;12.70;99.90;;;;;;5018439;28;19920;-69
2022/01/01 06:43:39;;;;;;;;;;;12.60;99.90;;;;;;5018764;28;20122;-68
2022/01/01 06:46:05;;;;;;;;;;;12.60;99.90;;;;;;5013411;28;19996;-68
2022/01/01 06:48:31;;;;;;;;;;;12.70;99.90;;;;;;5019371;28;19924;-71
2022/01/01 06:50:56;;;;;;;;;;;12.70;99.90;;;;;;5015670;28;19913;-69
2022/01/01 06:53:22;;;;;;;;;;;12.70;99.90;;;;;;5014990;28;19967;-69
2022/01/01 06:55:47;;;;;;;;;;;12.70;99.90;;;;;;5036905;28;19921;-69
2022/01/01 06:58:13;;;;;;;;;;;12.80;99.90;;;;;;5013516;28;20446;-71
2022/01/01 07:00:39;;;;;;;;;;;12.70;99.90;;;;;;5015658;28;19936;-71
2022/01/01 07:03:05;;;;;;;;;;;12.70;99.90;;;;;;5020623;28;19917;-72
2022/01/01 07:05:30;;;;;;;;;;;12.70;99.90;;;;;;5019954;28;20559;-70
2022/01/01 07:07:56;;;;;;;;;;;12.70;99.90;;;;;;5020289;28;19913;-72
2022/01/01 07:10:21;;;;;;;;;;;12.70;99.90;;;;;;5031171;28;19917;-72
2022/01/01 07:12:47;;;;;;;;;;;12.60;99.90;;;;;;5025772;28;20369;-69
2022/01/01 07:15:15;;;;;;;;;;;12.60;99.90;;;;;;5028051;28;19983;-70
2022/01/01 07:17:41;;;;;;;;;;;12.60;99.90;;;;;;5010640;28;19928;-70
2022/01/01 07:20:07;;;;;;;;;;;12.60;99.90;;;;;;5027268;28;19917;-69
2022/01/01 07:22:32;;;;;;;;;;;12.60;99.90;;;;;;5027534;28;19924;-69
2022/01/01 07:24:57;;;;;;;;;;;12.60;99.90;;;;;;5036417;28;19963;-69
2022/01/01 07:27:23;;;;;;;;;;;12.60;99.90;;;;;;5045840;28;20350;-71
2022/01/01 07:29:49;;;;;;;;;;;12.60;99.90;;;;;;5046243;28;19916;-70
2022/01/01 07:32:14;;;;;;;;;;;12.60;99.90;;;;;;5035396;28;19909;-70
2022/01/01 07:34:40;;;;;;;;;;;12.60;99.90;;;;;;5028583;28;19921;-69
2022/01/01 07:37:05;;;;;;;;;;;12.60;99.90;;;;;;5029320;28;20203;-69
2022/01/01 07:39:31;;;;;;;;;;;12.60;99.90;;;;;;5029253;28;19975;-69
2022/01/01 07:41:56;;;;;;;;;;;12.60;99.90;;;;;;5038736;28;20351;-71
2022/01/01 07:44:22;;;;;;;;;;;12.50;99.90;;;;;;5035045;28;19949;-70
2022/01/01 07:46:50;;;;;;;;;;;12.50;99.90;;;;;;5029806;28;19917;-69
2022/01/01 07:49:16;;;;;;;;;;;12.40;99.90;;;;;;5029234;28;19945;-70
2022/01/01 07:51:41;;;;;;;;;;;12.40;99.90;;;;;;5045928;28;19908;-69
2022/01/01 07:54:07;;;;;;;;;;;12.40;99.90;;;;;;5035425;28;19913;-70
2022/01/01 07:56:32;;;;;;;;;;;12.40;99.90;;;;;;5026368;28;19920;-69
2022/01/01 07:58:58;;;;;;;;;;;12.40;99.90;;;;;;5010103;28;19917;-71
2022/01/01 08:01:23;;;;;;;;;;;12.40;99.90;;;;;;5046187;28;19913;-70
2022/01/01 08:03:49;;;;;;;;;;;12.50;99.90;;;;;;5046626;28;19909;-71
2022/01/01 08:06:16;;;;;;;;;;;12.40;99.90;;;;;;5027930;28;20050;-69
2022/01/01 08:08:41;;;;;;;;;;;12.30;99.90;;;;;;5045435;28;20000;-70
2022/01/01 08:11:06;;;;;;;;;;;12.30;99.90;;;;;;5044548;28;20012;-69
2022/01/01 08:13:35;;;;;;;;;;;12.20;99.90;;;;;;5029303;28;19913;-68
2022/01/01 08:16:01;;;;;;;;;;;12.10;99.90;;;;;;5020047;28;20298;-70
2022/01/01 08:18:26;;;;;;;;;;;12.10;99.90;;;;;;5025435;28;20051;-70
2022/01/01 08:20:52;;;;;;;;;;;12.10;99.90;;;;;;5024246;28;19913;-72
2022/01/01 08:23:17;;;;;;;;;;;12.10;99.90;;;;;;5019091;28;19914;-69
2022/01/01 08:25:43;;;;;;;;;;;12.10;99.90;;;;;;5006500;28;20018;-70
2022/01/01 08:28:09;;;;;;;;;;;12.10;99.90;;;;;;5023328;28;19919;-70
2022/01/01 08:30:35;;;;;;;;;;;12.10;99.90;;;;;;5024813;28;20527;-72
2022/01/01 08:33:03;;;;;;;;;;;12.00;99.90;;;;;;5020667;28;19929;-71
2022/01/01 08:35:30;;;;;;;;;;;12.00;99.90;;;;;;5022587;28;19936;-70
2022/01/01 08:37:56;;;;;;;;;;;11.90;99.90;;;;;;5023686;28;19917;-69
2022/01/01 08:40:23;;;;;;;;;;;11.90;99.90;;;;;;5022221;28;19914;-70
2022/01/01 08:42:48;;;;;;;;;;;11.90;99.90;;;;;;5018061;28;19917;-71
2022/01/01 08:45:13;;;;;;;;;;;11.90;99.90;;;;;;5001251;28;20432;-67
2022/01/01 08:47:39;;;;;;;;;;;11.90;99.90;;;;;;5008566;28;19909;-70
2022/01/01 08:50:05;;;;;;;;;;;11.80;99.90;;;;;;5015956;28;19920;-71
2022/01/01 08:52:30;;;;;;;;;;;11.90;99.90;;;;;;5016640;28;20188;-70
2022/01/01 08:54:56;;;;;;;;;;;11.90;99.90;;;;;;5008406;28;19913;-70
2022/01/01 08:57:22;;;;;;;;;;;11.80;99.90;;;;;;5023265;28;19972;-68
2022/01/01 08:59:48;;;;;;;;;;;11.80;99.90;;;;;;5014241;28;19913;-70
2022/01/01 09:02:13;;;;;;;;;;;11.90;99.90;;;;;;5016354;28;20314;-69
2022/01/01 09:04:39;;;;;;;;;;;11.90;99.90;;;;;;5019938;28;19913;-70
2022/01/01 09:07:04;;;;;;;;;;;11.80;99.90;;;;;;5022030;28;19923;-71
2022/01/01 09:09:30;;;;;;;;;;;11.80;99.90;;;;;;5018142;28;19918;-69
2022/01/01 09:11:56;;;;;;;;;;;11.80;99.90;;;;;;5018783;28;19913;-72
2022/01/01 09:14:21;;;;;;;;;;;11.70;99.90;;;;;;5017118;28;20000;-74
2022/01/01 09:16:47;;;;;;;;;;;11.70;99.90;;;;;;5022865;28;20028;-71
2022/01/01 09:19:13;;;;;;;;;;;11.70;99.90;;;;;;5007723;28;20346;-69
2022/01/01 09:21:38;;;;;;;;;;;11.80;99.90;;;;;;5033157;28;19966;-73
2022/01/01 09:24:04;;;;;;;;;;;11.70;99.90;;;;;;5029302;28;20042;-68
2022/01/01 09:26:29;;;;;;;;;;;11.70;99.90;;;;;;5037276;28;20238;-71
2022/01/01 09:28:55;;;;;;;;;;;11.70;99.90;;;;;;5018685;28;19924;-68
2022/01/01 09:31:21;;;;;;;;;;;11.70;99.90;;;;;;5037981;28;20287;-70
2022/01/01 09:33:46;;;;;;;;;;;11.70;99.90;;;;;;5036168;28;19916;-71
2022/01/01 09:36:14;;;;;;;;;;;11.70;99.90;;;;;;5016730;28;19913;-68
2022/01/01 09:38:40;;;;;;;;;;;11.80;99.90;;;;;;5021371;28;20194;-75
2022/01/01 09:41:05;;;;;;;;;;;11.90;99.90;;;;;;5005744;28;20407;-71
2022/01/01 09:43:31;;;;;;;;;;;11.90;99.90;;;;;;5020880;28;20319;-71
2022/01/01 09:45:58;;;;;;;;;;;11.90;99.90;;;;;;5029723;28;19913;-71
2022/01/01 09:48:24;;;;;;;;;;;12.00;99.90;;;;;;5025294;28;19913;-70
2022/01/01 09:50:53;;;;;;;;;;;12.00;99.90;;;;;;5033343;28;19924;-74
2022/01/01 09:53:19;;;;;;;;;;;12.00;99.90;;;;;;5010669;28;19913;-69
2022/01/01 09:55:44;;;;;;;;;;;12.00;99.90;;;;;;5031571;28;19913;-69
2022/01/01 09:58:10;;;;;;;;;;;12.10;99.90;;;;;;5017613;28;20293;-70
2022/01/01 10:00:35;;;;;;;;;;;12.10;99.90;;;;;;5024984;28;20020;-70
2022/01/01 10:03:01;;;;;;;;;;;12.10;99.90;;;;;;5023777;28;19924;-69
2022/01/01 10:05:26;;;;;;;;;;;12.00;99.90;;;;;;5025345;28;19917;-69
2022/01/01 10:07:52;;;;;;;;;;;12.10;99.90;;;;;;5027827;28;20427;-71
2022/01/01 10:10:19;;;;;;;;;;;12.10;99.90;;;;;;5022233;28;20333;-70
2022/01/01 10:12:45;;;;;;;;;;;12.10;99.90;;;;;;5023963;28;20412;-69
2022/01/01 10:15:11;;;;;;;;;;;12.00;99.90;;;;;;5017943;28;20115;-67
2022/01/01 10:17:37;;;;;;;;;;;12.00;99.90;;;;;;5021245;28;19917;-71
2022/01/01 10:20:03;;;;;;;;;;;12.10;99.90;;;;;;5020291;28;19943;-72
2022/01/01 10:22:29;;;;;;;;;;;12.20;99.90;;;;;;5024241;28;20453;-70
2022/01/01 10:28:06;;;;;;;;;;;12.10;99.90;;;;;;5023052;28;20329;-70
2022/01/01 10:30:36;;;;;;;;;;;12.10;99.90;;;;;;5039271;28;20001;-68
2022/01/01 10:33:08;;;;;;;;;;;12.20;99.90;;;;;;5022308;28;19937;-67
2022/01/01 10:35:44;;;;;;;;;;;12.20;99.90;;;;;;5015976;28;20439;-69
2022/01/01 10:38:19;;;;;;;;;;;12.20;99.90;;;;;;5022414;28;20442;-71
2022/01/01 10:40:45;;;;;;;;;;;12.30;99.90;;;;;;5034699;28;20374;-70
2022/01/01 10:43:11;;;;;;;;;;;12.40;99.90;;;;;;5036758;28;20211;-71
2022/01/01 10:45:37;;;;;;;;;;;12.40;99.90;;;;;;5012403;28;19913;-71
2022/01/01 10:48:03;;;;;;;;;;;12.40;99.90;;;;;;5030726;28;19913;-70
2022/01/01 10:50:34;;;;;;;;;;;12.30;99.90;;;;;;5038428;28;19912;-69
2022/01/01 10:53:08;;;;;;;;;;;12.40;99.90;;;;;;5047921;28;20016;-70
2022/01/01 10:55:34;;;;;;;;;;;12.50;99.90;;;;;;5028456;28;19913;-71
2022/01/01 10:58:02;;;;;;;;;;;12.70;99.90;;;;;;5040458;28;19924;-71
2022/01/01 11:00:27;;;;;;;;;;;12.70;99.90;;;;;;5042769;28;20121;-71
2022/01/01 11:02:54;;;;;;;;;;;12.90;99.90;;;;;;5028504;28;19909;-68
2022/01/01 11:05:36;;;;;;;;;;;13.00;99.90;;;;;;5025561;28;19913;-72
2022/01/01 11:08:03;;;;;;;;;;;12.90;99.90;;;;;;5016312;28;19914;-69
2022/01/01 11:10:29;;;;;;;;;;;12.80;99.90;;;;;;5026810;28;19958;-68
2022/01/01 11:12:55;;;;;;;;;;;12.80;99.90;;;;;;5029696;28;19992;-69
2022/01/01 11:15:21;;;;;;;;;;;12.80;99.90;;;;;;5017737;28;20383;-72
2022/01/01 11:17:47;;;;;;;;;;;12.90;99.90;;;;;;5028577;28;19913;-70
2022/01/01 11:20:13;;;;;;;;;;;12.90;99.90;;;;;;5029751;28;20316;-70
2022/01/01 11:22:39;;;;;;;;;;;12.90;99.90;;;;;;5024278;28;19923;-71
2022/01/01 11:25:05;;;;;;;;;;;13.00;99.90;;;;;;5048712;28;20064;-71
2022/01/01 11:27:31;;;;;;;;;;;13.10;99.90;;;;;;5051681;28;19909;-69
2022/01/01 11:29:59;;;;;;;;;;;13.10;99.90;;;;;;5049564;28;19917;-70
2022/01/01 11:32:47;;;;;;;;;;;13.10;99.90;;;;;;5049376;28;19920;-71
2022/01/01 11:35:18;;;;;;;;;;;13.10;99.90;;;;;;4997149;28;19909;-70
2022/01/01 11:37:59;;;;;;;;;;;13.30;99.90;;;;;;5031757;28;19909;-67
2022/01/01 11:40:25;;;;;;;;;;;13.40;99.90;;;;;;5029166;28;19997;-69
2022/01/01 11:42:51;;;;;;;;;;;13.40;99.90;;;;;;5041626;28;20193;-72
2022/01/01 11:45:35;;;;;;;;;;;13.40;99.90;;;;;;5029822;28;19921;-73
2022/01/01 11:48:19;;;;;;;;;;;13.50;99.90;;;;;;5022966;28;19943;-70
2022/01/01 11:50:45;;;;;;;;;;;13.60;99.90;;;;;;5028133;28;19909;-69
2022/01/01 11:53:29;;;;;;;;;;;13.60;99.90;;;;;;5034279;28;19963;-70
2022/01/01 11:56:11;;;;;;;;;;;13.50;99.90;;;;;;5023757;28;19913;-69
2022/01/01 11:58:49;;;;;;;;;;;13.50;99.90;;;;;;5049107;28;19928;-70
2022/01/01 12:01:16;;;;;;;;;;;13.40;99.90;;;;;;5048749;28;20393;-68
2022/01/01 12:03:49;;;;;;;;;;;13.60;99.90;;;;;;5047323;28;19916;-71
2022/01/01 12:06:15;;;;;;;;;;;13.70;99.90;;;;;;5047771;28;20008;-71
2022/01/01 12:08:42;;;;;;;;;;;13.80;99.90;;;;;;5028929;28;20003;-70
2022/01/01 12:11:08;;;;;;;;;;;13.80;99.90;;;;;;5045474;28;19920;-70
2022/01/01 12:13:38;;;;;;;;;;;13.70;99.90;;;;;;5039230;28;19976;-71
2022/01/01 12:16:24;;;;;;;;;;;13.60;99.90;;;;;;5026023;28;19921;-70
2022/01/01 12:18:58;;;;;;;;;;;13.60;99.90;;;;;;5028041;28;19917;-70
2022/01/01 12:21:27;;;;;;;;;;;13.70;99.90;;;;;;5031935;28;20232;-70
2022/01/01 12:23:57;;;;;;;;;;;13.60;99.90;;;;;;5030520;28;20006;-70
2022/01/01 12:26:29;;;;;;;;;;;13.60;99.90;;;;;;5034400;28;19917;-71
2022/01/01 12:29:00;;;;;;;;;;;13.60;99.90;;;;;;5012913;28;20761;-70
2022/01/01 12:31:25;;;;;;;;;;;13.60;99.90;;;;;;5033660;28;19948;-69
2022/01/01 12:33:54;;;;;;;;;;;13.70;99.90;;;;;;5021152;28;20020;-69
2022/01/01 12:36:20;;;;;;;;;;;13.70;99.90;;;;;;5021887;28;19913;-70
2022/01/01 12:38:50;;;;;;;;;;;13.70;99.90;;;;;;5015492;28;19920;-69
2022/01/01 12:41:16;;;;;;;;;;;13.80;99.90;;;;;;5028113;28;19913;-70
2022/01/01 12:43:46;;;;;;;;;;;13.70;99.90;;;;;;5010294;28;20662;-69
2022/01/01 12:46:12;;;;;;;;;;;13.70;99.90;;;;;;5024129;28;19926;-72
2022/01/01 12:48:37;;;;;;;;;;;13.70;99.90;;;;;;5020913;28;19935;-75
2022/01/01 12:51:04;;;;;;;;;;;13.70;99.90;;;;;;5016334;28;19913;-70
2022/01/01 12:53:31;;;;;;;;;;;13.70;99.90;;;;;;5030249;28;19913;-70
2022/01/01 12:56:07;;;;;;;;;;;13.70;99.90;;;;;;5040614;28;19920;-70
2022/01/01 12:58:34;;;;;;;;;;;13.70;99.90;;;;;;5025554;28;20003;-70
2022/01/01 13:01:06;;;;;;;;;;;13.70;99.90;;;;;;5028534;28;20028;-70
2022/01/01 13:03:32;;;;;;;;;;;13.70;99.90;;;;;;5043823;28;19921;-69
2022/01/01 13:05:57;;;;;;;;;;;13.70;99.90;;;;;;5039057;28;20275;-70
2022/01/01 13:08:23;;;;;;;;;;;13.70;99.90;;;;;;5041451;28;19997;-70
2022/01/01 13:10:48;;;;;;;;;;;13.70;99.90;;;;;;5041047;28;19913;-69
2022/01/01 13:13:17;;;;;;;;;;;13.70;99.90;;;;;;5029088;28;20458;-70
2022/01/01 13:15:43;;;;;;;;;;;13.70;99.90;;;;;;5035757;28;20345;-70
2022/01/01 13:18:08;;;;;;;;;;;13.80;99.90;;;;;;5046314;28;20047;-71
2022/01/01 13:20:34;;;;;;;;;;;13.80;99.90;;;;;;5033962;28;20140;-70
2022/01/01 13:23:04;;;;;;;;;;;13.70;99.90;;;;;;5025486;28;20378;-71
2022/01/01 13:25:29;;;;;;;;;;;13.70;99.90;;;;;;5039986;28;20266;-71
2022/01/01 13:27:55;;;;;;;;;;;13.70;99.90;;;;;;5038776;28;19933;-71
2022/01/01 13:30:22;;;;;;;;;;;13.80;99.90;;;;;;5038211;28;19997;-69
2022/01/01 13:32:48;;;;;;;;;;;13.80;99.90;;;;;;5031692;28;19914;-71
2022/01/01 13:35:22;;;;;;;;;;;13.80;99.90;;;;;;5027102;28;19917;-70
2022/01/01 13:37:49;;;;;;;;;;;13.80;99.90;;;;;;5034442;28;20008;-70
2022/01/01 13:40:15;;;;;;;;;;;13.80;99.90;;;;;;5038994;28;19949;-69
2022/01/01 13:42:40;;;;;;;;;;;13.90;99.90;;;;;;5044486;28;19928;-72
2022/01/01 13:45:06;;;;;;;;;;;13.90;99.90;;;;;;5031846;28;19914;-71
2022/01/01 13:47:33;;;;;;;;;;;13.80;99.90;;;;;;5028661;28;20358;-71
2022/01/01 13:50:00;;;;;;;;;;;13.70;99.90;;;;;;5021459;28;19931;-72
2022/01/01 13:52:25;;;;;;;;;;;13.70;99.90;;;;;;5029888;28;20096;-71
2022/01/01 13:54:55;;;;;;;;;;;13.70;99.90;;;;;;5035145;28;20262;-72
2022/01/01 13:57:20;;;;;;;;;;;13.70;99.90;;;;;;5052140;28;19905;-68
2022/01/01 13:59:51;;;;;;;;;;;13.70;99.90;;;;;;5015677;28;19932;-70
2022/01/01 14:02:17;;;;;;;;;;;13.70;99.90;;;;;;5044503;28;19919;-70
2022/01/01 14:04:43;;;;;;;;;;;13.80;99.90;;;;;;5049582;28;20373;-70
2022/01/01 14:07:11;;;;;;;;;;;13.70;99.90;;;;;;5045751;28;19917;-69
2022/01/01 14:09:55;;;;;;;;;;;13.70;99.90;;;;;;5031084;28;19995;-71
2022/01/01 14:12:21;;;;;;;;;;;13.70;99.90;;;;;;5041216;28;19913;-70
2022/01/01 14:14:46;;;;;;;;;;;13.70;99.90;;;;;;5017454;28;20004;-69
2022/01/01 14:17:12;;;;;;;;;;;13.70;99.90;;;;;;5014816;28;19913;-74
2022/01/01 14:19:37;;;;;;;;;;;13.80;99.90;;;;;;5020202;28;20429;-71